Time;durP1;ratioP1;P1;durP2;ratioP2;P2;SDS_P1;SDS_P2;PMS_P1;PMS_P2;Temp;Humidity;BMP_temperature;BMP_pressure;BME280_temperature;BME280_humidity;BME280_pressure;Samples;Min_cycle;Max_cycle;Signal;HPM_P1;HPM_P2
2023/06/25 00:00:55;;;;;;;12.05;10.85;;;18.20;99.90;;;;;;5043211;28;20067;-79
2023/06/25 00:03:21;;;;;;;11.25;10.10;;;18.10;99.90;;;;;;5044238;28;20037;-79
2023/06/25 00:05:46;;;;;;;12.57;10.00;;;18.10;99.90;;;;;;5045392;28;20079;-79
2023/06/25 00:08:12;;;;;;;11.10;9.50;;;18.00;99.90;;;;;;5045023;28;20033;-78
2023/06/25 00:10:38;;;;;;;11.52;9.27;;;17.90;99.90;;;;;;5044584;28;20047;-79
2023/06/25 00:13:04;;;;;;;10.50;9.50;;;17.90;99.90;;;;;;5043815;28;20045;-79
2023/06/25 00:15:30;;;;;;;10.27;8.82;;;17.80;99.90;;;;;;5044811;28;20141;-82
2023/06/25 00:17:55;;;;;;;11.38;10.13;;;17.70;99.90;;;;;;5044198;28;20043;-82
2023/06/25 00:20:23;;;;;;;10.77;9.68;;;17.70;99.90;;;;;;5046084;28;20128;-82
2023/06/25 00:22:49;;;;;;;9.77;8.85;;;17.70;99.90;;;;;;5045439;28;20388;-82
2023/06/25 00:25:16;;;;;;;14.43;9.35;;;17.60;99.90;;;;;;5044420;28;20043;-82
2023/06/25 00:27:47;;;;;;;10.70;9.70;;;17.50;99.90;;;;;;5043776;28;20558;-82
2023/06/25 00:30:16;;;;;;;11.57;10.35;;;17.40;99.90;;;;;;5027163;28;20442;-82
2023/06/25 00:32:43;;;;;;;10.18;9.13;;;17.40;99.90;;;;;;5044492;28;20065;-82
2023/06/25 00:35:12;;;;;;;10.25;9.35;;;17.40;99.90;;;;;;5045762;28;20044;-82
2023/06/25 00:37:41;;;;;;;10.77;9.73;;;17.30;99.90;;;;;;5042991;28;20131;-82
2023/06/25 00:40:08;;;;;;;11.82;10.15;;;17.30;99.90;;;;;;5042975;28;20095;-82
2023/06/25 00:42:41;;;;;;;13.75;9.88;;;17.30;99.90;;;;;;5043979;28;20056;-82
2023/06/25 00:45:11;;;;;;;11.05;9.65;;;17.30;99.90;;;;;;5042423;28;20036;-82
2023/06/25 00:47:38;;;;;;;11.07;9.75;;;17.30;99.90;;;;;;5042358;28;20037;-82
2023/06/25 00:50:05;;;;;;;9.93;8.93;;;17.20;99.90;;;;;;5028136;28;20044;-82
2023/06/25 00:52:31;;;;;;;9.93;8.98;;;17.20;99.90;;;;;;5044771;28;20131;-82
2023/06/25 00:54:57;;;;;;;10.55;8.95;;;17.20;99.90;;;;;;5046721;28;20041;-82
2023/06/25 00:57:27;;;;;;;10.63;8.63;;;17.10;99.90;;;;;;5045317;28;20048;-82
2023/06/25 00:59:55;;;;;;;11.10;9.25;;;17.20;99.90;;;;;;5045928;28;20131;-82
2023/06/25 01:02:37;;;;;;;13.32;9.40;;;17.20;99.90;;;;;;5043779;28;20081;-82
2023/06/25 01:05:31;;;;;;;9.38;8.27;;;17.10;99.90;;;;;;5045132;28;20136;-82
2023/06/25 01:07:59;;;;;;;9.68;8.77;;;17.00;99.90;;;;;;5045363;28;20807;-82
2023/06/25 01:10:25;;;;;;;10.65;8.32;;;17.00;99.90;;;;;;5046129;28;20047;-82
2023/06/25 01:12:52;;;;;;;7.72;6.97;;;17.00;99.90;;;;;;5042330;28;20048;-82
2023/06/25 01:15:17;;;;;;;7.95;7.15;;;16.90;99.90;;;;;;5044453;28;20041;-82
2023/06/25 01:17:43;;;;;;;9.23;7.07;;;16.80;99.90;;;;;;5041938;28;20041;-82
2023/06/25 01:20:12;;;;;;;8.55;7.50;;;16.70;99.90;;;;;;5044644;28;20048;-82
2023/06/25 01:22:41;;;;;;;9.38;7.70;;;16.60;99.90;;;;;;5044258;28;20049;-83
2023/06/25 01:25:07;;;;;;;10.30;9.18;;;16.60;99.90;;;;;;5045391;28;20045;-82
2023/06/25 01:27:34;;;;;;;11.63;10.40;;;16.60;99.90;;;;;;5044257;28;20037;-82
2023/06/25 01:30:00;;;;;;;11.68;10.50;;;16.60;99.90;;;;;;5044938;28;20041;-82
2023/06/25 01:32:25;;;;;;;9.23;8.32;;;16.50;99.90;;;;;;5046379;28;20102;-82
2023/06/25 01:34:51;;;;;;;10.07;8.35;;;16.50;99.90;;;;;;5045737;28;20048;-82
2023/06/25 01:37:17;;;;;;;11.13;10.02;;;16.40;99.90;;;;;;5045198;28;20076;-82
2023/06/25 01:39:47;;;;;;;11.45;10.23;;;16.40;99.90;;;;;;5042683;28;20441;-82
2023/06/25 01:42:12;;;;;;;11.57;10.38;;;16.40;99.90;;;;;;5044955;28;20045;-82
2023/06/25 01:44:39;;;;;;;11.10;10.00;;;16.50;99.90;;;;;;5043873;28;21089;-82
2023/06/25 01:47:05;;;;;;;12.52;10.95;;;16.50;99.90;;;;;;5040024;28;20064;-82
2023/06/25 01:49:30;;;;;;;11.95;10.27;;;16.60;99.90;;;;;;5044416;28;20510;-82
2023/06/25 01:51:56;;;;;;;11.80;9.95;;;16.60;99.90;;;;;;5044182;28;20048;-83
2023/06/25 01:54:21;;;;;;;10.43;9.38;;;16.60;99.90;;;;;;5044262;28;20045;-82
2023/06/25 01:56:47;;;;;;;11.15;9.75;;;16.60;99.90;;;;;;5041195;28;20428;-83
2023/06/25 01:59:13;;;;;;;11.95;9.75;;;16.70;99.90;;;;;;5042698;28;20048;-82
2023/06/25 02:01:39;;;;;;;10.38;9.23;;;16.70;99.90;;;;;;5044697;28;20094;-82
2023/06/25 02:04:05;;;;;;;10.00;9.00;;;16.60;99.90;;;;;;5047757;28;20052;-82
2023/06/25 02:06:30;;;;;;;8.80;6.95;;;16.60;99.90;;;;;;5048685;28;20041;-82
2023/06/25 02:08:56;;;;;;;11.82;9.68;;;16.50;99.90;;;;;;5047367;28;20032;-82
2023/06/25 02:11:21;;;;;;;12.70;10.63;;;16.50;99.90;;;;;;5050158;28;20063;-82
2023/06/25 02:13:47;;;;;;;11.00;9.68;;;16.40;99.90;;;;;;5049282;28;20534;-82
2023/06/25 02:16:13;;;;;;;12.02;9.82;;;16.50;99.90;;;;;;5048885;28;20051;-83
2023/06/25 02:18:40;;;;;;;12.15;10.43;;;16.40;99.90;;;;;;5045480;28;20041;-82
2023/06/25 02:21:05;;;;;;;12.02;9.90;;;16.40;99.90;;;;;;5048423;28;20083;-82
2023/06/25 02:23:31;;;;;;;11.13;10.00;;;16.40;99.90;;;;;;5047403;28;20060;-82
2023/06/25 02:25:57;;;;;;;10.05;9.15;;;16.40;99.90;;;;;;5049088;28;20078;-82
2023/06/25 02:28:22;;;;;;;8.90;8.00;;;16.40;99.90;;;;;;5060984;28;20106;-83
2023/06/25 02:30:48;;;;;;;12.77;9.60;;;16.40;99.90;;;;;;5049515;28;20048;-82
2023/06/25 02:33:13;;;;;;;9.95;8.68;;;16.30;99.90;;;;;;5048472;28;20052;-82
2023/06/25 02:35:40;;;;;;;10.27;9.23;;;16.40;99.90;;;;;;5046023;28;20055;-83
2023/06/25 02:38:06;;;;;;;10.35;9.35;;;16.40;99.90;;;;;;5045359;28;20045;-82
2023/06/25 02:40:31;;;;;;;9.82;8.60;;;16.40;99.90;;;;;;5045719;28;20403;-82
2023/06/25 02:42:57;;;;;;;10.05;8.43;;;16.20;99.90;;;;;;5046411;28;20434;-82
2023/06/25 02:45:23;;;;;;;11.35;7.57;;;16.20;99.90;;;;;;5047282;28;20552;-82
2023/06/25 02:47:49;;;;;;;13.23;8.63;;;16.10;99.90;;;;;;5045089;28;20411;-82
2023/06/25 02:50:15;;;;;;;11.18;9.90;;;16.00;99.90;;;;;;5045934;28;20099;-82
2023/06/25 02:52:41;;;;;;;13.68;8.40;;;16.00;99.90;;;;;;5046958;28;20402;-81
2023/06/25 02:55:07;;;;;;;8.07;7.28;;;16.00;99.90;;;;;;5045114;28;20025;-82
2023/06/25 02:57:33;;;;;;;10.00;8.57;;;15.90;99.90;;;;;;5043377;28;20041;-82
2023/06/25 02:59:59;;;;;;;10.55;8.55;;;15.90;99.90;;;;;;5044305;28;20926;-82
2023/06/25 03:02:25;;;;;;;12.55;8.27;;;15.90;99.90;;;;;;5046790;28;20040;-82
2023/06/25 03:04:51;;;;;;;9.90;8.98;;;15.90;99.90;;;;;;5045866;28;20471;-82
2023/06/25 03:07:16;;;;;;;9.55;8.50;;;15.90;99.90;;;;;;5045298;28;20045;-82
2023/06/25 03:09:42;;;;;;;14.82;9.07;;;15.80;99.90;;;;;;5046528;28;20037;-82
2023/06/25 03:12:08;;;;;;;9.57;7.60;;;15.80;99.90;;;;;;5044430;28;20396;-80
2023/06/25 03:14:35;;;;;;;10.60;8.38;;;15.70;99.90;;;;;;5045550;28;20045;-82
2023/06/25 03:17:00;;;;;;;14.70;9.20;;;15.80;99.90;;;;;;5046747;28;20044;-82
2023/06/25 03:19:26;;;;;;;10.93;8.18;;;15.70;99.90;;;;;;5047811;28;20041;-82
2023/06/25 03:21:51;;;;;;;11.05;8.07;;;15.60;99.90;;;;;;5046020;28;20075;-82
2023/06/25 03:24:17;;;;;;;13.77;8.77;;;15.70;99.90;;;;;;5047637;28;20087;-82
2023/06/25 03:26:43;;;;;;;11.55;10.07;;;15.70;99.90;;;;;;5045561;28;20033;-82
2023/06/25 03:29:08;;;;;;;16.63;10.63;;;15.60;99.90;;;;;;5045154;28;20036;-82
2023/06/25 03:31:34;;;;;;;13.50;9.85;;;15.70;99.90;;;;;;5044366;28;20033;-82
2023/06/25 03:33:59;;;;;;;14.02;10.10;;;15.70;99.90;;;;;;5045576;28;20048;-82
2023/06/25 03:36:25;;;;;;;15.40;10.45;;;15.80;99.90;;;;;;5044448;28;20041;-82
2023/06/25 03:38:50;;;;;;;17.42;9.63;;;15.80;99.90;;;;;;5045101;28;20055;-82
2023/06/25 03:41:16;;;;;;;12.93;7.95;;;15.70;99.90;;;;;;5046469;28;20494;-82
2023/06/25 03:43:42;;;;;;;15.57;9.07;;;15.70;99.90;;;;;;5044476;28;20533;-82
2023/06/25 03:46:07;;;;;;;20.42;9.65;;;15.70;99.90;;;;;;5046041;28;20558;-82
2023/06/25 03:48:33;;;;;;;17.63;10.10;;;15.70;99.90;;;;;;5044964;28;20085;-82
2023/06/25 03:50:59;;;;;;;20.83;11.15;;;15.80;99.90;;;;;;5045968;28;20055;-81
2023/06/25 03:53:26;;;;;;;18.20;10.07;;;15.80;99.90;;;;;;5046097;28;20130;-82
2023/06/25 03:55:51;;;;;;;18.05;9.35;;;15.80;99.90;;;;;;5046218;28;20033;-82
2023/06/25 03:58:17;;;;;;;19.60;10.23;;;15.80;99.90;;;;;;5046679;28;20055;-82
2023/06/25 04:00:42;;;;;;;19.58;10.30;;;15.80;99.90;;;;;;5043638;28;20784;-82
2023/06/25 04:03:08;;;;;;;20.13;9.65;;;15.80;99.90;;;;;;5045388;28;20069;-82
2023/06/25 04:05:33;;;;;;;17.00;10.93;;;15.90;99.90;;;;;;5044607;28;20069;-82
2023/06/25 04:07:59;;;;;;;18.27;10.43;;;16.00;99.90;;;;;;5045050;28;20041;-82
2023/06/25 04:10:25;;;;;;;28.67;10.45;;;16.10;99.90;;;;;;5045083;28;20438;-81
2023/06/25 04:12:51;;;;;;;28.27;10.00;;;16.30;99.90;;;;;;5045128;28;20081;-82
2023/06/25 04:15:16;;;;;;;16.80;10.73;;;16.40;99.90;;;;;;5046401;28;20119;-82
2023/06/25 04:17:42;;;;;;;16.83;11.15;;;16.40;99.90;;;;;;5043679;28;20034;-83
2023/06/25 04:20:08;;;;;;;16.27;11.40;;;16.50;99.90;;;;;;5043318;28;20126;-82
2023/06/25 04:22:34;;;;;;;20.17;10.55;;;16.60;99.90;;;;;;5042788;28;20057;-82
2023/06/25 04:24:59;;;;;;;23.17;11.32;;;16.80;99.90;;;;;;5044962;28;20096;-82
2023/06/25 04:27:25;;;;;;;28.60;11.60;;;16.90;99.90;;;;;;5046561;28;20047;-83
2023/06/25 04:29:50;;;;;;;18.45;10.68;;;17.10;99.90;;;;;;5044578;28;20037;-82
2023/06/25 04:32:17;;;;;;;22.55;11.43;;;17.30;99.90;;;;;;5029610;28;20072;-83
2023/06/25 04:34:42;;;;;;;26.58;11.38;;;17.70;99.90;;;;;;5046334;28;20037;-80
2023/06/25 04:37:08;;;;;;;21.10;10.93;;;18.60;99.90;;;;;;5044006;28;20093;-80
2023/06/25 04:39:33;;;;;;;32.95;12.15;;;19.70;99.90;;;;;;5045693;28;20051;-80
2023/06/25 04:41:59;;;;;;;28.52;12.05;;;20.50;99.90;;;;;;5044599;28;20047;-80
2023/06/25 04:44:25;;;;;;;18.63;10.60;;;20.90;99.90;;;;;;5045847;28;20128;-80
2023/06/25 04:46:51;;;;;;;28.17;11.02;;;21.40;99.90;;;;;;5045266;28;20076;-80
2023/06/25 04:49:16;;;;;;;25.17;11.32;;;22.10;99.90;;;;;;5046175;28;20095;-80
2023/06/25 04:51:45;;;;;;;15.73;11.27;;;22.60;99.90;;;;;;5044965;28;20040;-81
2023/06/25 04:54:12;;;;;;;18.23;12.18;;;23.10;99.90;;;;;;5043479;28;20120;-80
2023/06/25 04:56:37;;;;;;;19.35;10.63;;;23.50;99.90;;;;;;5042246;28;20041;-80
2023/06/25 04:59:03;;;;;;;20.20;10.63;;;23.70;99.90;;;;;;5041749;28;20573;-80
2023/06/25 05:01:28;;;;;;;12.95;9.80;;;24.20;99.90;;;;;;5043884;28;20045;-80
2023/06/25 05:03:54;;;;;;;11.60;10.40;;;24.40;99.90;;;;;;5045050;28;20484;-80
2023/06/25 05:06:19;;;;;;;12.38;10.77;;;24.60;99.90;;;;;;5045805;28;20045;-80
2023/06/25 05:08:45;;;;;;;11.57;10.20;;;24.70;99.90;;;;;;5045557;28;20703;-78
2023/06/25 05:11:10;;;;;;;15.38;11.32;;;25.10;99.90;;;;;;5045130;28;20057;-80
2023/06/25 05:13:36;;;;;;;11.68;10.48;;;25.00;99.90;;;;;;5040282;28;20037;-80
2023/06/25 05:16:03;;;;;;;14.85;10.48;;;24.60;99.90;;;;;;5044501;28;20045;-80
2023/06/25 05:18:28;;;;;;;11.05;9.95;;;23.90;99.90;;;;;;5044277;28;20399;-80
2023/06/25 05:20:54;;;;;;;14.35;10.73;;;23.70;99.90;;;;;;5042684;28;20037;-79
2023/06/25 05:23:20;;;;;;;11.32;10.15;;;24.10;99.90;;;;;;5043427;28;20386;-80
2023/06/25 05:25:46;;;;;;;17.52;10.48;;;24.30;99.90;;;;;;5045386;28;20033;-81
2023/06/25 05:28:11;;;;;;;16.10;11.25;;;24.00;99.90;;;;;;5042968;28;21032;-80
2023/06/25 05:30:37;;;;;;;15.75;11.77;;;23.60;99.90;;;;;;5026195;28;20071;-81
2023/06/25 05:33:03;;;;;;;13.40;10.70;;;23.40;99.90;;;;;;5042123;28;20049;-80
2023/06/25 05:35:31;;;;;;;11.88;10.15;;;23.40;99.90;;;;;;5030445;28;20083;-79
2023/06/25 05:37:57;;;;;;;16.85;9.93;;;23.50;99.90;;;;;;5050473;28;20052;-78
2023/06/25 05:40:27;;;;;;;13.63;10.32;;;23.40;99.90;;;;;;5048079;28;20037;-79
2023/06/25 05:42:54;;;;;;;12.23;10.63;;;23.60;99.90;;;;;;5049919;28;20196;-78
2023/06/25 05:45:20;;;;;;;11.65;9.88;;;23.50;99.90;;;;;;5048577;28;20445;-79
2023/06/25 05:47:46;;;;;;;11.77;10.30;;;23.60;99.90;;;;;;5049316;28;20810;-79
2023/06/25 05:50:11;;;;;;;14.35;10.25;;;23.80;99.90;;;;;;5052583;28;20116;-79
2023/06/25 05:52:37;;;;;;;11.32;9.77;;;23.90;99.90;;;;;;5046953;28;20407;-79
2023/06/25 05:55:03;;;;;;;10.43;9.50;;;24.10;99.90;;;;;;5047074;28;20038;-79
2023/06/25 05:57:28;;;;;;;13.68;10.13;;;24.20;99.90;;;;;;5046494;28;20057;-78
2023/06/25 05:59:54;;;;;;;10.70;9.70;;;24.30;99.90;;;;;;5050089;28;20041;-79
2023/06/25 06:02:20;;;;;;;10.27;9.18;;;24.30;99.90;;;;;;5050106;28;20053;-79
2023/06/25 06:04:45;;;;;;;10.43;9.35;;;24.30;99.90;;;;;;5047583;28;20037;-79
2023/06/25 06:07:11;;;;;;;10.95;9.27;;;24.70;99.90;;;;;;5050349;28;20048;-78
2023/06/25 06:09:37;;;;;;;10.30;9.38;;;24.80;99.90;;;;;;5051466;28;20044;-79
2023/06/25 06:12:03;;;;;;;15.10;9.48;;;24.90;99.90;;;;;;5049779;28;20041;-79
2023/06/25 06:14:28;;;;;;;11.43;9.27;;;25.10;99.90;;;;;;5051848;28;20045;-78
2023/06/25 06:16:54;;;;;;;10.60;9.60;;;25.20;99.90;;;;;;5051165;28;20487;-78
2023/06/25 06:19:19;;;;;;;14.15;10.00;;;24.90;99.90;;;;;;5049999;28;20187;-79
2023/06/25 06:21:45;;;;;;;11.07;10.13;;;25.10;99.90;;;;;;5052831;28;20033;-78
2023/06/25 06:24:10;;;;;;;10.13;9.07;;;25.30;99.90;;;;;;5051093;28;20038;-78
2023/06/25 06:26:36;;;;;;;11.35;9.70;;;25.70;99.90;;;;;;5048103;28;20062;-80
2023/06/25 06:29:03;;;;;;;10.77;9.45;;;25.90;99.90;;;;;;5048851;28;20068;-81
2023/06/25 06:31:30;;;;;;;10.50;9.07;;;26.30;99.90;;;;;;5051712;28;20091;-79
2023/06/25 06:33:56;;;;;;;10.57;9.48;;;26.40;99.90;;;;;;5050793;28;20127;-79
2023/06/25 06:36:22;;;;;;;10.68;9.55;;;26.50;99.90;;;;;;5049843;28;20172;-80
2023/06/25 06:38:47;;;;;;;10.60;9.63;;;26.50;99.90;;;;;;5050215;28;20045;-79
2023/06/25 06:41:13;;;;;;;11.20;10.02;;;26.70;99.90;;;;;;5050365;28;20546;-78
2023/06/25 06:43:39;;;;;;;11.25;9.95;;;26.90;99.90;;;;;;5051461;28;20106;-79
2023/06/25 06:46:04;;;;;;;10.13;9.20;;;27.00;99.90;;;;;;5053646;28;20069;-81
2023/06/25 06:48:30;;;;;;;11.30;10.07;;;27.10;99.90;;;;;;5051882;28;20049;-80
2023/06/25 06:50:55;;;;;;;11.57;9.88;;;27.20;99.90;;;;;;5048227;28;20051;-80
2023/06/25 06:53:21;;;;;;;12.02;10.35;;;27.20;99.90;;;;;;5048714;28;20036;-80
2023/06/25 06:55:47;;;;;;;11.05;9.75;;;27.20;99.90;;;;;;5047583;28;20037;-81
2023/06/25 06:58:12;;;;;;;10.48;9.57;;;27.20;99.90;;;;;;5048540;28;20129;-80
2023/06/25 07:00:38;;;;;;;11.40;9.15;;;27.40;99.90;;;;;;5048822;28;20041;-80
2023/06/25 07:03:04;;;;;;;10.00;9.00;;;27.50;99.90;;;;;;5045626;28;20037;-81
2023/06/25 07:05:29;;;;;;;11.60;9.50;;;27.60;99.90;;;;;;5046690;28;20157;-79
2023/06/25 07:07:55;;;;;;;9.57;8.68;;;27.70;99.90;;;;;;5049933;28;20449;-80
2023/06/25 07:10:20;;;;;;;11.50;10.40;;;27.90;99.90;;;;;;5047365;28;20045;-80
2023/06/25 07:12:46;;;;;;;10.25;9.35;;;28.00;99.90;;;;;;5040645;28;20037;-80
2023/06/25 07:15:11;;;;;;;10.10;9.20;;;27.90;99.90;;;;;;5043035;28;20033;-79
2023/06/25 07:17:37;;;;;;;10.43;9.52;;;28.20;99.90;;;;;;5043035;28;20046;-78
2023/06/25 07:20:03;;;;;;;12.80;9.52;;;28.00;99.90;;;;;;5047812;28;20120;-79
2023/06/25 07:22:28;;;;;;;12.13;11.07;;;28.10;99.90;;;;;;5046762;28;20041;-79
2023/06/25 07:24:54;;;;;;;11.55;9.90;;;27.90;99.90;;;;;;5045446;28;20850;-80
2023/06/25 07:27:19;;;;;;;10.55;9.52;;;27.70;99.90;;;;;;5045105;28;20545;-80
2023/06/25 07:29:45;;;;;;;10.45;9.48;;;27.90;99.90;;;;;;5047590;28;20110;-79
2023/06/25 07:32:10;;;;;;;13.48;11.10;;;28.10;99.90;;;;;;5045300;28;20033;-80
2023/06/25 07:34:36;;;;;;;11.80;10.48;;;28.30;99.90;;;;;;5047266;28;20170;-80
2023/06/25 07:37:02;;;;;;;12.73;10.32;;;28.10;99.90;;;;;;5045383;28;20064;-78
2023/06/25 07:39:33;;;;;;;11.02;9.95;;;28.20;99.90;;;;;;5041900;28;20059;-79
2023/06/25 07:41:59;;;;;;;12.15;9.50;;;28.30;99.90;;;;;;5047192;28;20637;-79
2023/06/25 07:44:25;;;;;;;10.45;9.35;;;28.40;99.90;;;;;;5041120;28;20061;-80
2023/06/25 07:46:51;;;;;;;10.80;9.82;;;28.20;99.90;;;;;;5042317;28;20048;-80
2023/06/25 07:49:16;;;;;;;11.23;10.05;;;28.10;99.90;;;;;;5042630;28;20037;-79
2023/06/25 07:51:46;;;;;;;11.00;9.77;;;28.00;99.90;;;;;;5041629;28;20069;-80
2023/06/25 07:54:12;;;;;;;10.13;8.55;;;27.90;99.90;;;;;;5042033;28;20502;-79
2023/06/25 07:56:39;;;;;;;9.00;8.20;;;28.30;99.90;;;;;;5042534;28;20078;-79
2023/06/25 07:59:05;;;;;;;9.95;9.05;;;28.40;99.90;;;;;;5046078;28;20037;-80
2023/06/25 08:01:31;;;;;;;8.27;7.47;;;28.30;99.90;;;;;;5047788;28;20047;-81
2023/06/25 08:03:57;;;;;;;9.52;8.68;;;28.40;99.90;;;;;;5047141;28;20049;-78
2023/06/25 08:06:23;;;;;;;9.18;8.27;;;28.50;99.90;;;;;;5041492;28;20048;-79
2023/06/25 08:08:50;;;;;;;10.40;9.38;;;28.60;99.90;;;;;;5042684;28;20037;-83
2023/06/25 08:11:16;;;;;;;8.63;7.90;;;28.50;99.90;;;;;;5030577;28;20033;-81
2023/06/25 08:13:41;;;;;;;9.35;8.48;;;28.60;99.90;;;;;;5049163;28;20483;-82
2023/06/25 08:19:48;;;;;;;8.20;7.50;;;29.00;99.80;;;;;;5041136;28;20079;-81
2023/06/25 08:22:14;;;;;;;8.23;7.22;;;29.10;99.60;;;;;;5043440;28;20041;-80
2023/06/25 08:24:39;;;;;;;7.82;6.97;;;29.10;99.70;;;;;;5045193;28;20045;-80
2023/06/25 08:27:05;;;;;;;8.82;6.90;;;29.40;99.90;;;;;;5042093;28;20048;-80
2023/06/25 08:29:32;;;;;;;9.40;6.75;;;29.30;98.70;;;;;;5042735;28;20049;-80
2023/06/25 08:31:57;;;;;;;7.85;6.97;;;29.10;97.60;;;;;;5043328;28;20041;-83
2023/06/25 08:34:24;;;;;;;11.23;6.40;;;29.00;97.70;;;;;;5030191;28;20106;-83
2023/06/25 08:36:51;;;;;;;7.00;6.35;;;29.10;97.80;;;;;;5046399;28;20048;-82
2023/06/25 08:39:16;;;;;;;6.75;5.40;;;29.20;97.90;;;;;;5022202;28;20044;-81
2023/06/25 08:41:42;;;;;;;7.47;5.80;;;29.30;98.10;;;;;;5040573;28;20037;-81
2023/06/25 08:44:29;;;;;;;7.68;5.80;;;29.30;97.10;;;;;;5039094;28;20484;-82
2023/06/25 08:47:09;;;;;;;7.97;5.75;;;28.90;96.20;;;;;;5025402;28;20044;-83
2023/06/25 08:50:18;;;;;;;7.28;4.53;;;29.00;97.60;;;;;;5045145;28;20041;-83
2023/06/25 08:53:30;;;;;;;7.90;6.90;;;29.30;96.50;;;;;;5040205;28;20387;-82
2023/06/25 08:59:16;;;;;;;4.10;2.90;;;29.50;96.60;;;;;;5048973;28;20045;-85
2023/06/25 09:01:50;;;;;;;4.63;4.20;;;29.60;93.90;;;;;;4985499;28;20049;-84
2023/06/25 09:04:15;;;;;;;4.90;4.40;;;29.60;94.80;;;;;;4991126;28;20046;-82
2023/06/25 09:06:41;;;;;;;5.28;4.68;;;29.60;94.80;;;;;;5036886;28;20036;-81
2023/06/25 09:09:27;;;;;;;4.35;3.95;;;29.50;95.00;;;;;;5046898;28;20407;-84
2023/06/25 09:12:14;;;;;;;4.70;4.10;;;29.70;94.10;;;;;;5047737;28;20102;-84
2023/06/25 09:37:05;;;;;;;5.13;4.30;;;30.20;91.80;;;;;;5004987;28;20101;-84
2023/06/25 09:39:31;;;;;;;5.57;4.45;;;30.30;92.00;;;;;;4986528;28;20046;-85
2023/06/25 09:41:57;;;;;;;7.03;4.22;;;30.20;92.50;;;;;;5003881;28;20046;-84
2023/06/25 09:44:23;;;;;;;3.95;3.65;;;30.20;91.70;;;;;;5043024;28;20052;-83
2023/06/25 09:46:53;;;;;;;4.78;4.28;;;30.30;91.40;;;;;;5044441;28;20083;-83
2023/06/25 09:49:19;;;;;;;5.40;4.47;;;30.30;91.00;;;;;;5046849;28;20041;-83
2023/06/25 09:52:04;;;;;;;5.53;4.80;;;30.50;90.20;;;;;;5037412;28;20063;-85
2023/06/25 09:54:31;;;;;;;6.97;4.50;;;30.30;90.00;;;;;;5041988;28;20056;-85
2023/06/25 09:57:00;;;;;;;4.40;4.00;;;30.50;90.50;;;;;;5039847;28;20592;-85
2023/06/25 09:59:27;;;;;;;4.68;4.22;;;30.60;91.10;;;;;;5028065;28;20045;-87
2023/06/25 10:01:53;;;;;;;6.75;4.40;;;30.70;90.00;;;;;;5025065;28;20403;-86
2023/06/25 10:04:21;;;;;;;5.35;4.85;;;30.90;89.80;;;;;;5040582;28;20110;-88
2023/06/25 10:06:50;;;;;;;6.97;4.05;;;31.00;89.60;;;;;;5026149;28;20946;-86
2023/06/25 10:09:15;;;;;;;6.13;4.32;;;31.00;89.90;;;;;;5048842;28;20036;-85
2023/06/25 10:11:56;;;;;;;4.88;3.63;;;31.10;89.10;;;;;;5039236;28;20059;-85
2023/06/25 10:14:22;;;;;;;4.63;4.07;;;31.00;89.70;;;;;;5040424;28;20557;-86
2023/06/25 10:16:56;;;;;;;6.88;4.38;;;31.20;89.20;;;;;;5003946;28;20531;-86
2023/06/25 10:19:25;;;;;;;4.43;3.97;;;31.20;86.70;;;;;;5041546;28;20484;-84
2023/06/25 10:22:07;;;;;;;5.22;4.65;;;31.20;87.60;;;;;;5039106;28;20057;-84
2023/06/25 10:24:40;;;;;;;4.40;4.00;;;31.10;82.80;;;;;;5044577;28;20115;-84
2023/06/25 10:27:07;;;;;;;7.38;4.40;;;31.00;83.80;;;;;;5044063;28;20072;-85
2023/06/25 10:29:44;;;;;;;6.55;3.88;;;31.10;86.60;;;;;;5028294;28;20331;-86
2023/06/25 10:32:11;;;;;;;4.72;4.07;;;31.20;87.80;;;;;;5044669;28;20053;-85
2023/06/25 10:34:37;;;;;;;5.57;4.18;;;31.20;86.00;;;;;;5045518;28;20047;-85
2023/06/25 10:37:27;;;;;;;5.28;4.80;;;31.10;84.60;;;;;;5048101;28;20036;-86
2023/06/25 10:40:04;;;;;;;6.63;4.53;;;31.00;83.40;;;;;;5041999;28;20069;-86
2023/06/25 10:42:31;;;;;;;5.13;4.22;;;31.10;83.40;;;;;;5043768;28;20503;-85
2023/06/25 10:44:57;;;;;;;6.88;4.25;;;31.20;82.90;;;;;;5045184;28;20029;-88
2023/06/25 10:47:34;;;;;;;5.68;4.45;;;31.20;83.50;;;;;;5033551;28;20037;-86
2023/06/25 10:50:00;;;;;;;5.90;3.78;;;31.10;82.20;;;;;;5046660;28;20052;-87
2023/06/25 10:52:26;;;;;;;7.20;4.78;;;31.20;82.80;;;;;;5030512;28;20430;-83
2023/06/25 10:55:06;;;;;;;5.20;4.70;;;31.20;80.60;;;;;;5041935;28;20045;-88
2023/06/25 10:57:56;;;;;;;9.73;4.23;;;31.20;83.90;;;;;;5028409;28;20390;-87
2023/06/25 11:00:24;;;;;;;5.25;3.92;;;31.20;81.20;;;;;;5032311;28;20179;-85
2023/06/25 11:02:54;;;;;;;7.68;4.60;;;31.10;79.50;;;;;;5043044;28;20048;-87
2023/06/25 11:05:35;;;;;;;4.68;4.00;;;31.20;80.10;;;;;;5031832;28;20437;-85
2023/06/25 11:08:04;;;;;;;8.63;4.05;;;31.30;79.30;;;;;;5032301;28;20076;-85
2023/06/25 11:10:34;;;;;;;5.13;4.32;;;31.30;80.10;;;;;;5045858;28;20087;-86
2023/06/25 11:12:59;;;;;;;5.25;4.25;;;31.50;79.90;;;;;;5044166;28;20088;-86
2023/06/25 11:15:29;;;;;;;5.57;4.40;;;31.20;79.80;;;;;;5047083;28;20810;-87
2023/06/25 11:17:54;;;;;;;6.43;3.75;;;31.10;80.70;;;;;;5027689;28;20482;-86
2023/06/25 11:20:23;;;;;;;8.10;4.05;;;31.10;81.40;;;;;;5046835;28;20049;-86
2023/06/25 11:22:49;;;;;;;6.38;3.60;;;31.10;82.40;;;;;;5049374;28;20039;-86
2023/06/25 11:25:16;;;;;;;5.50;3.92;;;31.10;81.50;;;;;;5042498;28;20049;-86
2023/06/25 11:27:42;;;;;;;4.00;3.55;;;31.20;81.60;;;;;;5047110;28;20124;-85
2023/06/25 11:30:09;;;;;;;8.80;4.47;;;31.30;80.80;;;;;;5051190;28;20120;-86
2023/06/25 11:32:37;;;;;;;4.60;3.15;;;31.00;78.90;;;;;;5051487;28;20155;-87
2023/06/25 11:35:13;;;;;;;5.50;4.15;;;30.80;80.10;;;;;;5050701;28;20033;-86
2023/06/25 11:37:44;;;;;;;4.47;3.35;;;30.90;80.90;;;;;;5046412;28;20429;-86
2023/06/25 11:40:21;;;;;;;7.57;3.95;;;31.10;83.20;;;;;;5049468;28;20055;-86
2023/06/25 11:42:47;;;;;;;3.60;3.30;;;31.20;81.00;;;;;;5046991;28;20070;-86
2023/06/25 11:45:12;;;;;;;8.18;3.25;;;31.50;80.70;;;;;;5044801;28;20044;-86
2023/06/25 11:47:44;;;;;;;5.10;3.05;;;31.40;79.90;;;;;;5042938;28;20450;-86
2023/06/25 11:50:10;;;;;;;4.85;3.28;;;31.50;80.10;;;;;;5044107;28;20056;-86
2023/06/25 11:52:36;;;;;;;6.78;3.75;;;31.50;80.90;;;;;;5044507;28;20045;-86
2023/06/25 11:55:02;;;;;;;3.65;3.35;;;31.40;79.20;;;;;;5046907;28;20043;-86
2023/06/25 11:57:29;;;;;;;5.55;2.70;;;31.30;79.90;;;;;;5046184;28;20041;-85
2023/06/25 12:00:33;;;;;;;3.70;3.25;;;31.40;79.20;;;;;;5044445;28;20036;-86
2023/06/25 12:02:59;;;;;;;4.20;3.35;;;31.50;79.90;;;;;;5030328;28;20048;-86
2023/06/25 12:05:25;;;;;;;6.43;2.97;;;31.40;81.90;;;;;;5044293;28;20513;-85
2023/06/25 12:07:50;;;;;;;3.97;3.03;;;31.60;78.00;;;;;;5044660;28;20055;-86
2023/06/25 12:10:16;;;;;;;3.08;2.75;;;31.60;79.00;;;;;;5047395;28;20039;-86
2023/06/25 12:12:43;;;;;;;5.90;3.25;;;31.70;80.10;;;;;;5044171;28;20033;-85
2023/06/25 12:15:09;;;;;;;3.50;2.97;;;31.60;78.90;;;;;;5045205;28;20049;-85
2023/06/25 12:17:35;;;;;;;3.38;3.08;;;31.60;79.80;;;;;;5043621;28;20487;-85
2023/06/25 12:20:04;;;;;;;3.80;3.30;;;31.70;79.60;;;;;;5044174;28;20455;-88
2023/06/25 12:22:29;;;;;;;5.15;3.60;;;31.70;81.00;;;;;;5030319;28;20040;-84
2023/06/25 12:24:55;;;;;;;3.15;2.85;;;31.50;80.80;;;;;;5041983;28;20040;-85
2023/06/25 12:27:20;;;;;;;3.05;2.72;;;31.60;81.00;;;;;;5045332;28;20057;-84
2023/06/25 12:29:46;;;;;;;5.45;3.60;;;31.70;80.60;;;;;;5047531;28;20033;-84
2023/06/25 12:32:11;;;;;;;4.13;3.63;;;31.80;79.30;;;;;;5042659;28;20037;-84
2023/06/25 12:34:37;;;;;;;4.70;3.28;;;31.80;79.50;;;;;;5041210;28;20033;-85
2023/06/25 12:37:04;;;;;;;5.25;3.50;;;31.90;79.00;;;;;;5045345;28;20135;-85
2023/06/25 12:39:30;;;;;;;7.53;3.72;;;31.80;79.60;;;;;;5032123;28;20037;-86
2023/06/25 12:41:55;;;;;;;4.28;3.90;;;31.70;79.90;;;;;;5044647;28;20039;-85
2023/06/25 12:44:21;;;;;;;5.55;3.72;;;31.70;79.50;;;;;;5041624;28;20399;-85
2023/06/25 12:46:47;;;;;;;4.13;3.80;;;31.50;81.80;;;;;;5047512;28;20041;-83
2023/06/25 12:49:13;;;;;;;4.63;3.50;;;31.60;80.90;;;;;;5040654;28;20041;-84
2023/06/25 12:51:38;;;;;;;4.97;3.97;;;31.60;82.10;;;;;;5042823;28;20491;-84
2023/06/25 12:54:07;;;;;;;3.78;3.40;;;31.50;81.30;;;;;;5040515;28;20091;-83
2023/06/25 12:56:33;;;;;;;4.63;4.32;;;31.60;82.50;;;;;;5046841;28;20649;-86
2023/06/25 12:58:59;;;;;;;6.45;4.43;;;31.70;80.80;;;;;;5047535;28;20402;-84
2023/06/25 13:01:24;;;;;;;9.30;4.30;;;31.70;81.10;;;;;;5046963;28;20033;-86
2023/06/25 13:03:50;;;;;;;4.25;3.83;;;31.60;80.50;;;;;;5053789;28;20048;-86
2023/06/25 13:06:16;;;;;;;3.58;3.28;;;31.70;81.60;;;;;;5027899;28;20151;-86
2023/06/25 13:08:53;;;;;;;6.88;4.22;;;31.80;83.70;;;;;;5041779;28;20041;-87